sensor_id;sensor_type;location;lat;lon;timestamp;P1;durP1;ratioP1;P2;durP2;ratioP2
31848;SDS011;18414;59.352;18.152;2023-05-19T00:00:31;6.53;;;1.40;;
31848;SDS011;18414;59.352;18.152;2023-05-19T00:02:57;3.23;;;1.43;;
31848;SDS011;18414;59.352;18.152;2023-05-19T00:05:24;4.33;;;1.57;;
31848;SDS011;18414;59.352;18.152;2023-05-19T00:07:51;3.67;;;1.50;;
31848;SDS011;18414;59.352;18.152;2023-05-19T00:10:19;3.50;;;1.57;;
31848;SDS011;18414;59.352;18.152;2023-05-19T00:12:44;3.03;;;1.60;;
31848;SDS011;18414;59.352;18.152;2023-05-19T00:15:11;4.47;;;1.53;;
31848;SDS011;18414;59.352;18.152;2023-05-19T00:17:37;5.73;;;1.93;;
31848;SDS011;18414;59.352;18.152;2023-05-19T00:20:06;3.87;;;1.70;;
31848;SDS011;18414;59.352;18.152;2023-05-19T00:22:32;3.83;;;1.30;;
31848;SDS011;18414;59.352;18.152;2023-05-19T00:24:58;3.67;;;1.47;;
31848;SDS011;18414;59.352;18.152;2023-05-19T00:27:23;5.30;;;1.77;;
31848;SDS011;18414;59.352;18.152;2023-05-19T00:29:48;3.00;;;1.50;;
31848;SDS011;18414;59.352;18.152;2023-05-19T00:32:14;3.80;;;1.50;;
31848;SDS011;18414;59.352;18.152;2023-05-19T00:34:39;2.53;;;1.63;;
31848;SDS011;18414;59.352;18.152;2023-05-19T00:37:05;3.80;;;1.33;;
31848;SDS011;18414;59.352;18.152;2023-05-19T00:39:30;4.63;;;1.50;;
31848;SDS011;18414;59.352;18.152;2023-05-19T00:41:55;4.90;;;1.70;;
31848;SDS011;18414;59.352;18.152;2023-05-19T00:44:21;3.73;;;1.60;;
31848;SDS011;18414;59.352;18.152;2023-05-19T00:46:47;4.57;;;1.57;;
31848;SDS011;18414;59.352;18.152;2023-05-19T00:49:12;4.17;;;1.77;;
31848;SDS011;18414;59.352;18.152;2023-05-19T00:51:37;2.90;;;1.40;;
31848;SDS011;18414;59.352;18.152;2023-05-19T00:54:04;4.20;;;1.40;;
31848;SDS011;18414;59.352;18.152;2023-05-19T00:56:31;2.53;;;1.33;;
31848;SDS011;18414;59.352;18.152;2023-05-19T00:58:56;5.00;;;1.50;;
31848;SDS011;18414;59.352;18.152;2023-05-19T01:01:22;3.83;;;1.40;;
31848;SDS011;18414;59.352;18.152;2023-05-19T01:03:50;1.67;;;1.10;;
31848;SDS011;18414;59.352;18.152;2023-05-19T01:06:16;2.07;;;1.37;;
31848;SDS011;18414;59.352;18.152;2023-05-19T01:08:43;3.73;;;1.30;;
31848;SDS011;18414;59.352;18.152;2023-05-19T01:11:08;2.43;;;1.20;;
31848;SDS011;18414;59.352;18.152;2023-05-19T01:13:34;2.53;;;1.30;;
31848;SDS011;18414;59.352;18.152;2023-05-19T01:26:44;4.13;;;1.43;;
31848;SDS011;18414;59.352;18.152;2023-05-19T01:29:41;4.60;;;1.60;;
31848;SDS011;18414;59.352;18.152;2023-05-19T01:32:18;3.20;;;1.67;;
31848;SDS011;18414;59.352;18.152;2023-05-19T01:34:43;7.20;;;2.87;;
31848;SDS011;18414;59.352;18.152;2023-05-19T01:37:10;3.20;;;1.43;;
31848;SDS011;18414;59.352;18.152;2023-05-19T01:39:37;4.07;;;1.43;;
31848;SDS011;18414;59.352;18.152;2023-05-19T01:42:04;2.43;;;1.50;;
31848;SDS011;18414;59.352;18.152;2023-05-19T01:44:30;8.73;;;2.00;;
31848;SDS011;18414;59.352;18.152;2023-05-19T01:46:56;3.20;;;1.63;;
31848;SDS011;18414;59.352;18.152;2023-05-19T01:49:21;3.00;;;1.50;;
31848;SDS011;18414;59.352;18.152;2023-05-19T01:51:47;3.17;;;1.60;;
31848;SDS011;18414;59.352;18.152;2023-05-19T01:54:13;4.93;;;1.60;;
31848;SDS011;18414;59.352;18.152;2023-05-19T01:59:33;3.50;;;1.60;;
31848;SDS011;18414;59.352;18.152;2023-05-19T02:02:16;4.23;;;1.37;;
31848;SDS011;18414;59.352;18.152;2023-05-19T02:05:12;4.07;;;1.60;;
31848;SDS011;18414;59.352;18.152;2023-05-19T02:07:40;3.60;;;1.30;;
31848;SDS011;18414;59.352;18.152;2023-05-19T02:12:35;2.40;;;0.87;;
31848;SDS011;18414;59.352;18.152;2023-05-19T02:15:13;1.20;;;0.80;;
31848;SDS011;18414;59.352;18.152;2023-05-19T02:17:42;1.30;;;0.80;;
31848;SDS011;18414;59.352;18.152;2023-05-19T02:20:12;2.30;;;1.03;;
31848;SDS011;18414;59.352;18.152;2023-05-19T02:22:38;3.43;;;1.00;;
31848;SDS011;18414;59.352;18.152;2023-05-19T02:25:03;1.00;;;0.77;;
31848;SDS011;18414;59.352;18.152;2023-05-19T02:27:29;3.13;;;0.77;;
31848;SDS011;18414;59.352;18.152;2023-05-19T02:29:54;1.73;;;0.80;;
31848;SDS011;18414;59.352;18.152;2023-05-19T02:32:20;1.00;;;0.80;;
31848;SDS011;18414;59.352;18.152;2023-05-19T02:34:45;1.37;;;1.03;;
31848;SDS011;18414;59.352;18.152;2023-05-19T02:37:14;3.10;;;1.00;;
31848;SDS011;18414;59.352;18.152;2023-05-19T02:39:43;2.17;;;0.90;;
31848;SDS011;18414;59.352;18.152;2023-05-19T02:42:09;1.67;;;0.93;;
31848;SDS011;18414;59.352;18.152;2023-05-19T02:44:35;2.87;;;1.20;;
31848;SDS011;18414;59.352;18.152;2023-05-19T02:47:01;1.10;;;0.90;;
31848;SDS011;18414;59.352;18.152;2023-05-19T02:49:26;2.47;;;0.97;;
31848;SDS011;18414;59.352;18.152;2023-05-19T02:51:54;2.33;;;1.17;;
31848;SDS011;18414;59.352;18.152;2023-05-19T02:54:20;2.97;;;1.37;;
31848;SDS011;18414;59.352;18.152;2023-05-19T02:56:45;3.67;;;1.60;;
31848;SDS011;18414;59.352;18.152;2023-05-19T02:59:11;4.23;;;1.63;;
31848;SDS011;18414;59.352;18.152;2023-05-19T03:01:36;4.23;;;1.90;;
31848;SDS011;18414;59.352;18.152;2023-05-19T03:04:02;5.43;;;2.03;;
31848;SDS011;18414;59.352;18.152;2023-05-19T03:06:27;4.90;;;2.00;;
31848;SDS011;18414;59.352;18.152;2023-05-19T03:08:53;6.93;;;2.10;;
31848;SDS011;18414;59.352;18.152;2023-05-19T03:11:18;6.93;;;2.53;;
31848;SDS011;18414;59.352;18.152;2023-05-19T03:13:44;3.60;;;1.53;;
31848;SDS011;18414;59.352;18.152;2023-05-19T03:16:09;4.40;;;1.60;;
31848;SDS011;18414;59.352;18.152;2023-05-19T03:18:35;4.55;;;1.75;;
31848;SDS011;18414;59.352;18.152;2023-05-19T03:21:01;6.43;;;1.83;;
31848;SDS011;18414;59.352;18.152;2023-05-19T03:23:27;4.10;;;1.77;;
31848;SDS011;18414;59.352;18.152;2023-05-19T03:25:52;6.18;;;1.60;;
31848;SDS011;18414;59.352;18.152;2023-05-19T03:28:19;4.93;;;1.77;;
31848;SDS011;18414;59.352;18.152;2023-05-19T03:30:45;3.95;;;1.55;;
31848;SDS011;18414;59.352;18.152;2023-05-19T03:33:10;4.35;;;1.77;;
31848;SDS011;18414;59.352;18.152;2023-05-19T03:35:36;4.22;;;1.52;;
31848;SDS011;18414;59.352;18.152;2023-05-19T03:38:01;4.22;;;1.85;;
31848;SDS011;18414;59.352;18.152;2023-05-19T03:40:26;5.90;;;1.50;;
31848;SDS011;18414;59.352;18.152;2023-05-19T03:42:52;6.38;;;1.40;;
31848;SDS011;18414;59.352;18.152;2023-05-19T03:45:18;6.28;;;1.50;;
31848;SDS011;18414;59.352;18.152;2023-05-19T03:47:43;3.80;;;1.30;;
31848;SDS011;18414;59.352;18.152;2023-05-19T03:50:10;5.35;;;1.50;;
31848;SDS011;18414;59.352;18.152;2023-05-19T03:52:35;3.72;;;1.35;;
31848;SDS011;18414;59.352;18.152;2023-05-19T03:55:02;6.53;;;1.77;;
31848;SDS011;18414;59.352;18.152;2023-05-19T03:57:28;3.40;;;1.48;;
31848;SDS011;18414;59.352;18.152;2023-05-19T03:59:53;3.40;;;1.60;;
31848;SDS011;18414;59.352;18.152;2023-05-19T04:02:18;3.15;;;1.50;;
31848;SDS011;18414;59.352;18.152;2023-05-19T04:04:44;2.75;;;1.52;;
31848;SDS011;18414;59.352;18.152;2023-05-19T04:07:10;5.05;;;1.52;;
31848;SDS011;18414;59.352;18.152;2023-05-19T04:09:35;5.68;;;1.92;;
31848;SDS011;18414;59.352;18.152;2023-05-19T04:12:01;3.70;;;1.80;;
31848;SDS011;18414;59.352;18.152;2023-05-19T04:14:26;6.20;;;1.80;;
31848;SDS011;18414;59.352;18.152;2023-05-19T04:16:52;4.87;;;1.90;;
31848;SDS011;18414;59.352;18.152;2023-05-19T04:19:18;5.90;;;1.83;;
31848;SDS011;18414;59.352;18.152;2023-05-19T04:21:43;7.50;;;2.13;;
31848;SDS011;18414;59.352;18.152;2023-05-19T04:24:09;6.50;;;2.20;;
31848;SDS011;18414;59.352;18.152;2023-05-19T04:26:34;6.83;;;1.93;;
31848;SDS011;18414;59.352;18.152;2023-05-19T04:28:59;8.77;;;2.00;;
31848;SDS011;18414;59.352;18.152;2023-05-19T04:31:28;6.37;;;2.07;;
31848;SDS011;18414;59.352;18.152;2023-05-19T04:33:53;7.50;;;1.90;;
31848;SDS011;18414;59.352;18.152;2023-05-19T04:36:19;6.20;;;2.13;;
31848;SDS011;18414;59.352;18.152;2023-05-19T04:38:45;5.23;;;2.10;;
31848;SDS011;18414;59.352;18.152;2023-05-19T04:41:11;4.80;;;1.80;;
31848;SDS011;18414;59.352;18.152;2023-05-19T04:43:36;7.80;;;2.30;;
31848;SDS011;18414;59.352;18.152;2023-05-19T04:46:08;5.30;;;2.00;;
31848;SDS011;18414;59.352;18.152;2023-05-19T04:48:37;5.63;;;1.80;;
31848;SDS011;18414;59.352;18.152;2023-05-19T04:51:04;5.03;;;1.97;;
31848;SDS011;18414;59.352;18.152;2023-05-19T04:53:29;3.67;;;1.88;;
31848;SDS011;18414;59.352;18.152;2023-05-19T04:55:55;6.13;;;2.03;;
31848;SDS011;18414;59.352;18.152;2023-05-19T04:58:21;4.00;;;1.55;;
31848;SDS011;18414;59.352;18.152;2023-05-19T05:00:49;6.72;;;1.92;;
31848;SDS011;18414;59.352;18.152;2023-05-19T05:03:15;5.13;;;1.77;;
31848;SDS011;18414;59.352;18.152;2023-05-19T05:05:41;4.15;;;1.83;;
31848;SDS011;18414;59.352;18.152;2023-05-19T05:08:08;4.57;;;1.80;;
31848;SDS011;18414;59.352;18.152;2023-05-19T05:10:34;5.85;;;1.92;;
31848;SDS011;18414;59.352;18.152;2023-05-19T05:13:00;4.90;;;2.08;;
31848;SDS011;18414;59.352;18.152;2023-05-19T05:15:25;5.57;;;1.95;;
31848;SDS011;18414;59.352;18.152;2023-05-19T05:17:52;5.15;;;1.65;;
31848;SDS011;18414;59.352;18.152;2023-05-19T05:20:18;6.95;;;2.00;;
31848;SDS011;18414;59.352;18.152;2023-05-19T05:22:44;6.32;;;2.20;;
31848;SDS011;18414;59.352;18.152;2023-05-19T05:25:10;6.38;;;2.00;;
31848;SDS011;18414;59.352;18.152;2023-05-19T05:27:35;6.55;;;2.25;;
31848;SDS011;18414;59.352;18.152;2023-05-19T05:30:01;7.00;;;2.30;;
31848;SDS011;18414;59.352;18.152;2023-05-19T05:32:27;5.82;;;1.70;;
31848;SDS011;18414;59.352;18.152;2023-05-19T05:34:52;5.20;;;1.98;;
31848;SDS011;18414;59.352;18.152;2023-05-19T05:37:18;6.15;;;2.05;;
31848;SDS011;18414;59.352;18.152;2023-05-19T05:39:43;7.20;;;2.00;;
31848;SDS011;18414;59.352;18.152;2023-05-19T05:42:09;6.50;;;1.75;;
31848;SDS011;18414;59.352;18.152;2023-05-19T05:44:34;6.55;;;2.00;;
31848;SDS011;18414;59.352;18.152;2023-05-19T05:47:00;6.03;;;2.15;;
31848;SDS011;18414;59.352;18.152;2023-05-19T05:49:26;6.10;;;1.85;;
31848;SDS011;18414;59.352;18.152;2023-05-19T05:51:52;8.45;;;1.67;;
31848;SDS011;18414;59.352;18.152;2023-05-19T05:54:19;5.40;;;2.13;;
31848;SDS011;18414;59.352;18.152;2023-05-19T05:56:46;4.70;;;1.60;;
31848;SDS011;18414;59.352;18.152;2023-05-19T05:59:14;6.70;;;2.17;;
31848;SDS011;18414;59.352;18.152;2023-05-19T06:01:41;6.25;;;1.92;;
31848;SDS011;18414;59.352;18.152;2023-05-19T06:04:08;4.00;;;1.60;;
31848;SDS011;18414;59.352;18.152;2023-05-19T06:06:33;5.18;;;1.85;;
31848;SDS011;18414;59.352;18.152;2023-05-19T06:09:00;3.03;;;1.65;;
31848;SDS011;18414;59.352;18.152;2023-05-19T06:11:25;5.55;;;2.17;;
31848;SDS011;18414;59.352;18.152;2023-05-19T06:13:50;6.95;;;1.70;;
31848;SDS011;18414;59.352;18.152;2023-05-19T06:16:16;6.40;;;1.92;;
31848;SDS011;18414;59.352;18.152;2023-05-19T06:18:41;6.13;;;3.00;;
31848;SDS011;18414;59.352;18.152;2023-05-19T06:21:06;6.35;;;3.00;;
31848;SDS011;18414;59.352;18.152;2023-05-19T06:23:34;8.48;;;2.72;;
31848;SDS011;18414;59.352;18.152;2023-05-19T06:26:00;5.88;;;2.20;;
31848;SDS011;18414;59.352;18.152;2023-05-19T06:28:25;8.63;;;2.08;;
31848;SDS011;18414;59.352;18.152;2023-05-19T06:30:50;3.97;;;2.10;;
31848;SDS011;18414;59.352;18.152;2023-05-19T06:33:16;6.63;;;2.40;;
31848;SDS011;18414;59.352;18.152;2023-05-19T06:35:41;4.22;;;1.90;;
31848;SDS011;18414;59.352;18.152;2023-05-19T06:38:06;6.05;;;2.10;;
31848;SDS011;18414;59.352;18.152;2023-05-19T06:40:32;4.85;;;1.60;;
31848;SDS011;18414;59.352;18.152;2023-05-19T06:42:57;4.53;;;1.60;;
31848;SDS011;18414;59.352;18.152;2023-05-19T06:45:22;4.45;;;1.75;;
31848;SDS011;18414;59.352;18.152;2023-05-19T06:47:47;5.47;;;1.83;;
31848;SDS011;18414;59.352;18.152;2023-05-19T06:50:13;4.35;;;1.35;;
31848;SDS011;18414;59.352;18.152;2023-05-19T06:52:38;4.75;;;1.25;;
31848;SDS011;18414;59.352;18.152;2023-05-19T06:55:04;5.32;;;1.50;;
31848;SDS011;18414;59.352;18.152;2023-05-19T06:57:30;4.68;;;1.50;;
31848;SDS011;18414;59.352;18.152;2023-05-19T06:59:55;5.32;;;1.48;;
31848;SDS011;18414;59.352;18.152;2023-05-19T07:02:21;3.42;;;1.42;;
31848;SDS011;18414;59.352;18.152;2023-05-19T07:04:46;3.33;;;1.40;;
31848;SDS011;18414;59.352;18.152;2023-05-19T07:07:12;4.75;;;1.50;;
31848;SDS011;18414;59.352;18.152;2023-05-19T07:09:37;3.78;;;1.17;;
31848;SDS011;18414;59.352;18.152;2023-05-19T07:12:03;5.55;;;1.30;;
31848;SDS011;18414;59.352;18.152;2023-05-19T07:14:28;4.30;;;1.70;;
31848;SDS011;18414;59.352;18.152;2023-05-19T07:16:53;4.78;;;1.58;;
31848;SDS011;18414;59.352;18.152;2023-05-19T07:19:19;6.47;;;1.60;;
31848;SDS011;18414;59.352;18.152;2023-05-19T07:21:44;3.33;;;1.23;;
31848;SDS011;18414;59.352;18.152;2023-05-19T07:24:10;3.15;;;1.40;;
31848;SDS011;18414;59.352;18.152;2023-05-19T07:26:36;4.53;;;1.60;;
31848;SDS011;18414;59.352;18.152;2023-05-19T07:29:01;3.65;;;1.52;;
31848;SDS011;18414;59.352;18.152;2023-05-19T07:31:26;6.22;;;1.48;;
31848;SDS011;18414;59.352;18.152;2023-05-19T07:33:52;4.55;;;1.52;;
31848;SDS011;18414;59.352;18.152;2023-05-19T07:36:17;5.53;;;1.40;;
31848;SDS011;18414;59.352;18.152;2023-05-19T07:38:44;4.72;;;1.73;;
31848;SDS011;18414;59.352;18.152;2023-05-19T07:41:10;6.05;;;1.27;;
31848;SDS011;18414;59.352;18.152;2023-05-19T07:43:35;5.85;;;1.70;;
31848;SDS011;18414;59.352;18.152;2023-05-19T07:46:01;4.15;;;1.40;;
31848;SDS011;18414;59.352;18.152;2023-05-19T07:48:26;4.57;;;1.42;;
31848;SDS011;18414;59.352;18.152;2023-05-19T07:50:51;5.22;;;1.23;;
31848;SDS011;18414;59.352;18.152;2023-05-19T07:53:17;3.35;;;1.35;;
31848;SDS011;18414;59.352;18.152;2023-05-19T07:55:43;5.63;;;1.50;;
31848;SDS011;18414;59.352;18.152;2023-05-19T07:58:09;3.17;;;1.10;;
31848;SDS011;18414;59.352;18.152;2023-05-19T08:00:34;2.92;;;1.50;;
31848;SDS011;18414;59.352;18.152;2023-05-19T08:03:00;2.90;;;1.23;;
31848;SDS011;18414;59.352;18.152;2023-05-19T08:05:26;2.95;;;1.23;;
31848;SDS011;18414;59.352;18.152;2023-05-19T08:07:53;3.63;;;1.45;;
31848;SDS011;18414;59.352;18.152;2023-05-19T08:10:19;6.05;;;1.25;;
31848;SDS011;18414;59.352;18.152;2023-05-19T08:12:44;1.67;;;1.17;;
31848;SDS011;18414;59.352;18.152;2023-05-19T08:15:09;3.00;;;1.30;;
31848;SDS011;18414;59.352;18.152;2023-05-19T08:17:35;4.55;;;1.38;;
31848;SDS011;18414;59.352;18.152;2023-05-19T08:20:02;4.18;;;1.35;;
31848;SDS011;18414;59.352;18.152;2023-05-19T08:22:29;2.22;;;1.27;;
31848;SDS011;18414;59.352;18.152;2023-05-19T08:24:54;3.28;;;1.48;;
31848;SDS011;18414;59.352;18.152;2023-05-19T08:27:20;4.05;;;1.65;;
31848;SDS011;18414;59.352;18.152;2023-05-19T08:29:46;4.40;;;1.30;;
31848;SDS011;18414;59.352;18.152;2023-05-19T08:32:11;2.35;;;0.93;;
31848;SDS011;18414;59.352;18.152;2023-05-19T08:34:37;3.85;;;1.40;;
31848;SDS011;18414;59.352;18.152;2023-05-19T08:37:02;4.50;;;1.38;;
31848;SDS011;18414;59.352;18.152;2023-05-19T08:39:28;1.40;;;0.90;;
31848;SDS011;18414;59.352;18.152;2023-05-19T08:41:53;2.28;;;1.10;;
31848;SDS011;18414;59.352;18.152;2023-05-19T08:44:18;3.50;;;1.40;;
31848;SDS011;18414;59.352;18.152;2023-05-19T08:46:45;2.85;;;1.33;;
31848;SDS011;18414;59.352;18.152;2023-05-19T08:49:12;4.88;;;1.48;;
31848;SDS011;18414;59.352;18.152;2023-05-19T08:51:38;3.30;;;1.50;;
31848;SDS011;18414;59.352;18.152;2023-05-19T08:54:13;3.45;;;1.48;;
31848;SDS011;18414;59.352;18.152;2023-05-19T08:56:40;3.67;;;1.30;;
31848;SDS011;18414;59.352;18.152;2023-05-19T08:59:07;2.65;;;1.48;;
31848;SDS011;18414;59.352;18.152;2023-05-19T09:01:32;3.92;;;1.40;;
31848;SDS011;18414;59.352;18.152;2023-05-19T09:03:58;7.85;;;1.30;;
31848;SDS011;18414;59.352;18.152;2023-05-19T09:06:24;3.13;;;1.20;;
31848;SDS011;18414;59.352;18.152;2023-05-19T09:08:50;5.68;;;1.40;;
31848;SDS011;18414;59.352;18.152;2023-05-19T09:11:15;4.82;;;2.25;;
31848;SDS011;18414;59.352;18.152;2023-05-19T09:13:41;3.20;;;1.10;;
31848;SDS011;18414;59.352;18.152;2023-05-19T09:16:06;4.75;;;1.20;;
31848;SDS011;18414;59.352;18.152;2023-05-19T09:18:33;3.58;;;1.40;;
31848;SDS011;18414;59.352;18.152;2023-05-19T09:21:02;3.60;;;1.23;;
31848;SDS011;18414;59.352;18.152;2023-05-19T09:23:29;3.20;;;1.30;;
31848;SDS011;18414;59.352;18.152;2023-05-19T09:25:59;3.45;;;1.05;;
31848;SDS011;18414;59.352;18.152;2023-05-19T09:28:28;3.20;;;1.50;;
31848;SDS011;18414;59.352;18.152;2023-05-19T09:30:59;3.65;;;1.30;;
31848;SDS011;18414;59.352;18.152;2023-05-19T09:33:25;3.60;;;1.10;;
31848;SDS011;18414;59.352;18.152;2023-05-19T09:35:50;4.57;;;1.60;;
31848;SDS011;18414;59.352;18.152;2023-05-19T09:38:17;5.47;;;1.70;;
31848;SDS011;18414;59.352;18.152;2023-05-19T09:40:44;3.63;;;1.10;;
31848;SDS011;18414;59.352;18.152;2023-05-19T09:43:12;7.32;;;1.25;;
31848;SDS011;18414;59.352;18.152;2023-05-19T09:45:38;3.65;;;1.38;;
31848;SDS011;18414;59.352;18.152;2023-05-19T09:48:03;3.50;;;1.13;;
31848;SDS011;18414;59.352;18.152;2023-05-19T09:50:29;2.95;;;1.10;;
31848;SDS011;18414;59.352;18.152;2023-05-19T09:52:55;4.00;;;1.63;;
31848;SDS011;18414;59.352;18.152;2023-05-19T09:55:21;2.00;;;1.05;;
31848;SDS011;18414;59.352;18.152;2023-05-19T09:57:49;3.47;;;1.30;;
31848;SDS011;18414;59.352;18.152;2023-05-19T10:00:16;3.17;;;1.05;;
31848;SDS011;18414;59.352;18.152;2023-05-19T10:02:43;4.03;;;1.23;;
31848;SDS011;18414;59.352;18.152;2023-05-19T10:05:10;4.53;;;1.60;;
31848;SDS011;18414;59.352;18.152;2023-05-19T10:07:41;2.20;;;1.10;;
31848;SDS011;18414;59.352;18.152;2023-05-19T10:10:08;6.50;;;1.60;;
31848;SDS011;18414;59.352;18.152;2023-05-19T10:12:36;3.63;;;1.20;;
31848;SDS011;18414;59.352;18.152;2023-05-19T10:15:03;3.42;;;1.33;;
31848;SDS011;18414;59.352;18.152;2023-05-19T10:17:30;2.38;;;1.15;;
31848;SDS011;18414;59.352;18.152;2023-05-19T10:19:56;3.42;;;1.23;;
31848;SDS011;18414;59.352;18.152;2023-05-19T10:22:21;5.18;;;1.15;;
31848;SDS011;18414;59.352;18.152;2023-05-19T10:24:47;3.53;;;1.45;;
31848;SDS011;18414;59.352;18.152;2023-05-19T10:27:12;4.60;;;1.50;;
31848;SDS011;18414;59.352;18.152;2023-05-19T10:29:40;3.83;;;1.58;;
31848;SDS011;18414;59.352;18.152;2023-05-19T10:32:10;4.07;;;1.40;;
31848;SDS011;18414;59.352;18.152;2023-05-19T10:37:50;4.32;;;1.23;;
31848;SDS011;18414;59.352;18.152;2023-05-19T10:43:05;3.20;;;1.30;;
31848;SDS011;18414;59.352;18.152;2023-05-19T10:45:50;3.97;;;1.50;;
31848;SDS011;18414;59.352;18.152;2023-05-19T10:48:17;3.13;;;1.40;;
31848;SDS011;18414;59.352;18.152;2023-05-19T10:50:44;3.13;;;1.05;;
31848;SDS011;18414;59.352;18.152;2023-05-19T10:53:17;2.03;;;1.13;;
31848;SDS011;18414;59.352;18.152;2023-05-19T10:55:53;2.92;;;1.15;;
31848;SDS011;18414;59.352;18.152;2023-05-19T11:01:12;4.05;;;0.98;;
31848;SDS011;18414;59.352;18.152;2023-05-19T11:03:49;2.53;;;1.17;;
31848;SDS011;18414;59.352;18.152;2023-05-19T11:06:18;4.57;;;1.30;;
31848;SDS011;18414;59.352;18.152;2023-05-19T11:08:57;0.80;;;0.63;;
31848;SDS011;18414;59.352;18.152;2023-05-19T11:11:25;5.10;;;1.30;;
31848;SDS011;18414;59.352;18.152;2023-05-19T11:13:51;4.05;;;1.02;;
31848;SDS011;18414;59.352;18.152;2023-05-19T11:16:25;2.30;;;1.08;;
31848;SDS011;18414;59.352;18.152;2023-05-19T11:19:00;2.08;;;1.30;;
31848;SDS011;18414;59.352;18.152;2023-05-19T11:21:41;2.17;;;1.08;;
31848;SDS011;18414;59.352;18.152;2023-05-19T11:24:31;2.75;;;1.15;;
31848;SDS011;18414;59.352;18.152;2023-05-19T11:29:58;3.65;;;1.33;;
31848;SDS011;18414;59.352;18.152;2023-05-19T11:32:31;1.40;;;0.70;;
31848;SDS011;18414;59.352;18.152;2023-05-19T11:34:59;2.35;;;0.95;;
31848;SDS011;18414;59.352;18.152;2023-05-19T11:37:26;1.13;;;0.70;;
31848;SDS011;18414;59.352;18.152;2023-05-19T11:39:53;1.63;;;0.90;;
31848;SDS011;18414;59.352;18.152;2023-05-19T11:42:18;2.20;;;1.00;;
31848;SDS011;18414;59.352;18.152;2023-05-19T11:44:44;6.13;;;0.90;;
31848;SDS011;18414;59.352;18.152;2023-05-19T11:47:13;4.20;;;1.30;;
31848;SDS011;18414;59.352;18.152;2023-05-19T11:49:42;1.70;;;1.05;;
31848;SDS011;18414;59.352;18.152;2023-05-19T11:52:08;2.72;;;0.93;;
31848;SDS011;18414;59.352;18.152;2023-05-19T11:54:33;9.52;;;1.00;;
31848;SDS011;18414;59.352;18.152;2023-05-19T11:57:00;1.95;;;1.00;;
31848;SDS011;18414;59.352;18.152;2023-05-19T11:59:33;3.40;;;1.00;;
31848;SDS011;18414;59.352;18.152;2023-05-19T12:02:00;4.80;;;0.82;;
31848;SDS011;18414;59.352;18.152;2023-05-19T12:04:28;5.72;;;0.90;;
31848;SDS011;18414;59.352;18.152;2023-05-19T12:06:54;1.35;;;0.90;;
31848;SDS011;18414;59.352;18.152;2023-05-19T12:09:21;3.22;;;0.90;;
31848;SDS011;18414;59.352;18.152;2023-05-19T12:11:47;1.40;;;0.90;;
31848;SDS011;18414;59.352;18.152;2023-05-19T12:14:13;1.85;;;0.73;;
31848;SDS011;18414;59.352;18.152;2023-05-19T12:16:39;1.42;;;0.80;;
31848;SDS011;18414;59.352;18.152;2023-05-19T12:19:06;2.40;;;0.80;;
31848;SDS011;18414;59.352;18.152;2023-05-19T12:21:32;5.45;;;1.17;;
31848;SDS011;18414;59.352;18.152;2023-05-19T12:23:58;2.15;;;0.90;;
31848;SDS011;18414;59.352;18.152;2023-05-19T12:26:23;2.03;;;1.00;;
31848;SDS011;18414;59.352;18.152;2023-05-19T12:28:49;3.05;;;0.98;;
31848;SDS011;18414;59.352;18.152;2023-05-19T12:31:16;1.60;;;1.00;;
31848;SDS011;18414;59.352;18.152;2023-05-19T12:33:42;1.35;;;0.80;;
31848;SDS011;18414;59.352;18.152;2023-05-19T12:36:08;1.98;;;0.80;;
31848;SDS011;18414;59.352;18.152;2023-05-19T12:38:34;3.75;;;1.30;;
31848;SDS011;18414;59.352;18.152;2023-05-19T12:41:01;3.50;;;0.77;;
31848;SDS011;18414;59.352;18.152;2023-05-19T12:43:27;1.05;;;0.60;;
31848;SDS011;18414;59.352;18.152;2023-05-19T12:45:52;1.88;;;0.90;;
31848;SDS011;18414;59.352;18.152;2023-05-19T12:48:17;2.20;;;0.65;;
31848;SDS011;18414;59.352;18.152;2023-05-19T12:50:46;2.17;;;0.93;;
31848;SDS011;18414;59.352;18.152;2023-05-19T12:53:13;2.40;;;1.23;;
31848;SDS011;18414;59.352;18.152;2023-05-19T12:55:42;2.42;;;0.70;;
31848;SDS011;18414;59.352;18.152;2023-05-19T12:58:09;1.77;;;1.00;;
31848;SDS011;18414;59.352;18.152;2023-05-19T13:00:43;1.52;;;1.00;;
31848;SDS011;18414;59.352;18.152;2023-05-19T13:03:17;2.30;;;1.00;;
31848;SDS011;18414;59.352;18.152;2023-05-19T13:05:47;1.58;;;0.88;;
31848;SDS011;18414;59.352;18.152;2023-05-19T13:08:15;2.78;;;0.95;;
31848;SDS011;18414;59.352;18.152;2023-05-19T13:10:44;1.77;;;0.80;;
31848;SDS011;18414;59.352;18.152;2023-05-19T13:13:10;3.80;;;1.00;;
31848;SDS011;18414;59.352;18.152;2023-05-19T13:15:36;3.05;;;0.90;;
31848;SDS011;18414;59.352;18.152;2023-05-19T13:18:03;1.48;;;1.00;;
31848;SDS011;18414;59.352;18.152;2023-05-19T13:20:30;4.53;;;1.13;;
31848;SDS011;18414;59.352;18.152;2023-05-19T13:22:57;2.00;;;0.95;;
31848;SDS011;18414;59.352;18.152;2023-05-19T13:25:22;3.10;;;0.82;;
31848;SDS011;18414;59.352;18.152;2023-05-19T13:27:48;3.08;;;0.80;;
31848;SDS011;18414;59.352;18.152;2023-05-19T13:30:13;1.52;;;0.80;;
31848;SDS011;18414;59.352;18.152;2023-05-19T13:32:42;1.58;;;0.63;;
31848;SDS011;18414;59.352;18.152;2023-05-19T13:35:08;1.80;;;1.00;;
31848;SDS011;18414;59.352;18.152;2023-05-19T13:37:34;2.83;;;0.90;;
31848;SDS011;18414;59.352;18.152;2023-05-19T13:40:00;1.17;;;0.80;;
31848;SDS011;18414;59.352;18.152;2023-05-19T13:42:25;9.45;;;1.30;;
31848;SDS011;18414;59.352;18.152;2023-05-19T13:44:54;2.50;;;1.00;;
31848;SDS011;18414;59.352;18.152;2023-05-19T13:47:20;1.48;;;0.82;;
31848;SDS011;18414;59.352;18.152;2023-05-19T13:49:47;2.20;;;1.00;;
31848;SDS011;18414;59.352;18.152;2023-05-19T13:52:12;2.33;;;1.00;;
31848;SDS011;18414;59.352;18.152;2023-05-19T13:54:38;3.35;;;1.00;;
31848;SDS011;18414;59.352;18.152;2023-05-19T13:57:04;1.92;;;1.05;;
31848;SDS011;18414;59.352;18.152;2023-05-19T13:59:30;1.35;;;0.90;;
31848;SDS011;18414;59.352;18.152;2023-05-19T14:01:55;4.43;;;0.90;;
31848;SDS011;18414;59.352;18.152;2023-05-19T14:04:21;2.50;;;1.00;;
31848;SDS011;18414;59.352;18.152;2023-05-19T14:06:47;1.35;;;0.90;;
31848;SDS011;18414;59.352;18.152;2023-05-19T14:09:13;3.33;;;1.08;;
31848;SDS011;18414;59.352;18.152;2023-05-19T14:11:39;1.65;;;1.23;;
31848;SDS011;18414;59.352;18.152;2023-05-19T14:14:05;2.58;;;0.95;;
31848;SDS011;18414;59.352;18.152;2023-05-19T14:16:31;1.60;;;0.90;;
31848;SDS011;18414;59.352;18.152;2023-05-19T14:18:57;2.58;;;1.20;;
31848;SDS011;18414;59.352;18.152;2023-05-19T14:21:22;1.35;;;0.85;;
31848;SDS011;18414;59.352;18.152;2023-05-19T14:23:48;2.13;;;1.10;;
31848;SDS011;18414;59.352;18.152;2023-05-19T14:26:13;1.70;;;0.77;;
31848;SDS011;18414;59.352;18.152;2023-05-19T14:28:38;1.98;;;1.02;;
31848;SDS011;18414;59.352;18.152;2023-05-19T14:31:04;3.25;;;0.98;;
31848;SDS011;18414;59.352;18.152;2023-05-19T14:33:30;1.85;;;0.93;;
31848;SDS011;18414;59.352;18.152;2023-05-19T14:35:56;1.20;;;0.80;;
31848;SDS011;18414;59.352;18.152;2023-05-19T14:38:24;2.00;;;0.93;;
31848;SDS011;18414;59.352;18.152;2023-05-19T14:40:50;1.88;;;0.90;;
31848;SDS011;18414;59.352;18.152;2023-05-19T14:43:15;3.13;;;0.90;;
31848;SDS011;18414;59.352;18.152;2023-05-19T14:45:40;1.63;;;0.80;;
31848;SDS011;18414;59.352;18.152;2023-05-19T14:48:06;1.90;;;0.88;;
31848;SDS011;18414;59.352;18.152;2023-05-19T14:50:31;3.50;;;1.08;;
31848;SDS011;18414;59.352;18.152;2023-05-19T14:52:57;2.13;;;1.10;;
31848;SDS011;18414;59.352;18.152;2023-05-19T14:55:22;4.35;;;1.35;;
31848;SDS011;18414;59.352;18.152;2023-05-19T14:57:47;3.80;;;1.02;;